Time;durP1;ratioP1;P1;durP2;ratioP2;P2;SDS_P1;SDS_P2;PMS_P1;PMS_P2;Temp;Humidity;BMP_temperature;BMP_pressure;BME280_temperature;BME280_humidity;BME280_pressure;Samples;Min_cycle;Max_cycle;Signal;HPM_P1;HPM_P2
2024/02/20 00:01:51;;;;;;;19.45;5.15;;;8.20;99.90;;;;;;5057678;28;20038;-85
2024/02/20 00:04:19;;;;;;;17.17;4.32;;;8.20;99.90;;;;;;5057672;28;20036;-85
2024/02/20 00:06:45;;;;;;;20.00;5.00;;;8.20;99.90;;;;;;5075360;28;20029;-85
2024/02/20 00:09:11;;;;;;;19.83;4.78;;;8.20;99.90;;;;;;5058237;28;20491;-84
2024/02/20 00:11:36;;;;;;;19.38;5.05;;;8.20;99.90;;;;;;5057349;28;20093;-85
2024/02/20 00:14:02;;;;;;;20.40;4.28;;;8.20;99.90;;;;;;5076750;28;20036;-85
2024/02/20 00:16:28;;;;;;;21.73;5.25;;;8.10;99.90;;;;;;5057858;28;20029;-86
2024/02/20 00:18:54;;;;;;;18.70;5.50;;;8.10;99.90;;;;;;5057495;28;20033;-86
2024/02/20 00:21:19;;;;;;;21.10;4.95;;;8.10;99.90;;;;;;5059268;28;20029;-85
2024/02/20 00:23:45;;;;;;;18.63;5.05;;;8.20;99.90;;;;;;5060788;28;20039;-86
2024/02/20 00:26:11;;;;;;;18.73;4.57;;;8.20;99.90;;;;;;5060783;28;20035;-85
2024/02/20 00:28:40;;;;;;;21.58;5.18;;;8.20;99.90;;;;;;5060545;28;20165;-86
2024/02/20 00:31:09;;;;;;;19.23;4.50;;;8.10;99.90;;;;;;5078072;28;20024;-86
2024/02/20 00:33:35;;;;;;;20.38;4.68;;;8.10;99.90;;;;;;5077324;28;20028;-85
2024/02/20 00:36:02;;;;;;;16.27;4.70;;;8.10;99.90;;;;;;5060007;28;20138;-85
2024/02/20 00:38:30;;;;;;;19.10;4.20;;;8.00;99.90;;;;;;5060214;28;20511;-85
2024/02/20 00:41:03;;;;;;;19.55;3.85;;;8.10;99.90;;;;;;5060110;28;20480;-85
2024/02/20 00:43:29;;;;;;;16.33;4.20;;;8.10;99.90;;;;;;5076748;28;20032;-86
2024/02/20 00:45:55;;;;;;;19.08;4.28;;;8.00;99.90;;;;;;5094632;28;20057;-85
2024/02/20 00:48:21;;;;;;;19.17;4.72;;;8.00;99.90;;;;;;5059997;28;20034;-85
2024/02/20 00:50:46;;;;;;;20.80;4.75;;;8.00;99.90;;;;;;5076727;28;20016;-84
2024/02/20 00:53:13;;;;;;;20.48;5.10;;;8.00;99.90;;;;;;5076599;28;20057;-86
2024/02/20 00:55:39;;;;;;;13.88;3.85;;;8.00;99.90;;;;;;5060778;28;20073;-86
2024/02/20 00:58:05;;;;;;;21.77;4.63;;;8.00;99.90;;;;;;5077810;28;20069;-86
2024/02/20 01:00:30;;;;;;;18.95;4.35;;;7.90;99.90;;;;;;5105213;28;20483;-85
2024/02/20 01:02:58;;;;;;;19.58;4.85;;;8.00;99.90;;;;;;5095533;28;20032;-85
2024/02/20 01:05:24;;;;;;;19.05;5.28;;;7.90;99.90;;;;;;5084387;28;20038;-85
2024/02/20 01:07:49;;;;;;;18.60;4.65;;;7.90;99.90;;;;;;5084215;28;20012;-85
2024/02/20 01:10:16;;;;;;;17.20;4.22;;;7.80;99.90;;;;;;5098702;28;20024;-86
2024/02/20 01:12:42;;;;;;;23.77;5.32;;;7.80;99.90;;;;;;5068905;28;20064;-86
2024/02/20 01:15:08;;;;;;;18.08;5.10;;;7.80;99.90;;;;;;5060062;28;20453;-86
2024/02/20 01:17:34;;;;;;;18.88;4.60;;;7.80;99.90;;;;;;5059967;28;20040;-86
2024/02/20 01:20:00;;;;;;;16.15;4.50;;;7.80;99.90;;;;;;5076846;28;20051;-85
2024/02/20 01:22:26;;;;;;;15.70;4.68;;;7.80;99.90;;;;;;5072735;28;20049;-85
2024/02/20 01:24:51;;;;;;;21.15;4.40;;;7.70;99.90;;;;;;5073196;28;20428;-84
2024/02/20 01:27:17;;;;;;;19.88;4.63;;;7.70;99.90;;;;;;5055840;28;20434;-85
2024/02/20 01:29:44;;;;;;;17.17;5.22;;;7.70;99.90;;;;;;5056543;28;20078;-85
2024/02/20 01:32:10;;;;;;;23.17;5.88;;;7.80;99.90;;;;;;5073143;28;20035;-85
2024/02/20 01:34:36;;;;;;;19.73;5.07;;;7.80;99.90;;;;;;5073315;28;20033;-85
2024/02/20 01:37:02;;;;;;;20.30;4.75;;;7.80;99.90;;;;;;5057624;28;20031;-85
2024/02/20 01:39:30;;;;;;;19.73;5.05;;;7.80;99.90;;;;;;5057629;28;20032;-85
2024/02/20 01:41:57;;;;;;;14.82;3.95;;;7.80;99.90;;;;;;5057325;28;20039;-86
2024/02/20 01:44:33;;;;;;;17.08;4.05;;;7.80;99.90;;;;;;5056468;28;20132;-84
2024/02/20 01:47:00;;;;;;;16.70;4.72;;;7.80;99.90;;;;;;5072691;28;20074;-86
2024/02/20 01:49:31;;;;;;;17.95;3.88;;;7.80;99.90;;;;;;5072274;28;20487;-85
2024/02/20 01:52:00;;;;;;;18.38;4.93;;;7.80;99.90;;;;;;5071663;28;20455;-85
2024/02/20 01:54:26;;;;;;;18.77;4.63;;;7.80;99.90;;;;;;5056405;28;20082;-86
2024/02/20 01:56:52;;;;;;;19.40;4.72;;;7.80;99.90;;;;;;5055852;28;20032;-85
2024/02/20 01:59:18;;;;;;;21.55;4.82;;;7.80;99.90;;;;;;5072665;28;20020;-86
2024/02/20 02:01:43;;;;;;;16.10;4.57;;;7.80;99.90;;;;;;5056009;28;20400;-85
2024/02/20 02:04:09;;;;;;;20.95;4.25;;;7.80;99.90;;;;;;5055649;28;20032;-86
2024/02/20 02:06:38;;;;;;;20.10;4.45;;;7.80;99.90;;;;;;5055908;28;20024;-85
2024/02/20 02:09:04;;;;;;;17.88;4.38;;;7.80;99.90;;;;;;5072460;28;20056;-86
2024/02/20 02:11:30;;;;;;;16.73;4.30;;;7.80;99.90;;;;;;5073635;28;20407;-86
2024/02/20 02:13:55;;;;;;;23.35;5.55;;;7.80;99.90;;;;;;5075944;28;20029;-85
2024/02/20 02:16:21;;;;;;;16.90;4.97;;;7.80;99.90;;;;;;5059306;28;20029;-86
2024/02/20 02:18:47;;;;;;;18.08;3.70;;;7.80;99.90;;;;;;5059459;28;20032;-86
2024/02/20 02:21:13;;;;;;;17.08;4.28;;;7.80;99.90;;;;;;5078719;28;20021;-85
2024/02/20 02:23:38;;;;;;;15.57;4.00;;;7.80;99.90;;;;;;5062776;28;20387;-86
2024/02/20 02:26:10;;;;;;;15.07;4.03;;;7.80;99.90;;;;;;5063059;28;20077;-86
2024/02/20 02:28:37;;;;;;;21.00;4.35;;;7.80;99.90;;;;;;5080204;28;20532;-86
2024/02/20 02:31:02;;;;;;;13.50;4.03;;;7.70;99.90;;;;;;5079799;28;20032;-84
2024/02/20 02:33:28;;;;;;;17.17;3.72;;;7.70;99.90;;;;;;5103469;28;20031;-86
2024/02/20 02:35:54;;;;;;;21.40;5.18;;;7.70;99.90;;;;;;5103797;28;20031;-85
2024/02/20 02:38:19;;;;;;;19.40;4.72;;;7.70;99.90;;;;;;5103533;28;20028;-85
2024/02/20 02:40:45;;;;;;;17.20;4.32;;;7.70;99.90;;;;;;5067271;28;20058;-86
2024/02/20 02:43:11;;;;;;;18.90;4.55;;;7.80;99.90;;;;;;5082175;28;20049;-85
2024/02/20 02:45:36;;;;;;;16.73;4.22;;;7.70;99.90;;;;;;5064366;28;20056;-85
2024/02/20 02:48:03;;;;;;;15.32;4.43;;;7.80;99.90;;;;;;5063808;28;20024;-85
2024/02/20 02:50:29;;;;;;;14.75;4.30;;;7.80;99.90;;;;;;5097524;28;20024;-85
2024/02/20 02:52:55;;;;;;;18.45;3.63;;;7.80;99.90;;;;;;5078765;28;20405;-86
2024/02/20 02:55:24;;;;;;;26.10;4.60;;;7.80;99.90;;;;;;5078775;28;20478;-84
2024/02/20 02:57:50;;;;;;;17.90;4.30;;;7.80;99.90;;;;;;5078971;28;20028;-84
2024/02/20 03:00:16;;;;;;;19.17;4.13;;;7.80;99.90;;;;;;5061953;28;20034;-84
2024/02/20 03:02:42;;;;;;;14.95;3.63;;;7.80;99.90;;;;;;5096153;28;20093;-86
2024/02/20 03:05:08;;;;;;;16.73;4.38;;;7.80;99.90;;;;;;5061166;28;20088;-85
2024/02/20 03:07:33;;;;;;;15.73;4.10;;;7.80;99.90;;;;;;5077870;28;20590;-85
2024/02/20 03:09:59;;;;;;;19.55;3.90;;;7.80;99.90;;;;;;5061572;28;20528;-85
2024/02/20 03:12:28;;;;;;;19.10;4.22;;;7.90;99.90;;;;;;5078142;28;20023;-86
2024/02/20 03:14:54;;;;;;;19.92;4.60;;;7.90;99.90;;;;;;5061763;28;20027;-86
2024/02/20 03:17:20;;;;;;;22.33;4.65;;;7.90;99.90;;;;;;5078098;28;20020;-85
2024/02/20 03:19:45;;;;;;;17.27;4.63;;;7.90;99.90;;;;;;5061879;28;20082;-86
2024/02/20 03:22:11;;;;;;;14.70;3.83;;;7.90;99.90;;;;;;5060904;28;20483;-84
2024/02/20 03:24:37;;;;;;;17.92;4.47;;;7.90;99.90;;;;;;5060570;28;20091;-85
2024/02/20 03:27:03;;;;;;;16.17;4.05;;;8.00;99.90;;;;;;5078149;28;20441;-84
2024/02/20 03:29:30;;;;;;;16.25;3.78;;;7.90;99.90;;;;;;5061465;28;20535;-86
2024/02/20 03:31:56;;;;;;;17.13;4.68;;;7.90;99.90;;;;;;5078306;28;20051;-85
2024/02/20 03:34:21;;;;;;;17.00;4.85;;;7.90;99.90;;;;;;5077964;28;20467;-85
2024/02/20 03:36:47;;;;;;;16.40;4.10;;;7.90;99.90;;;;;;5061437;28;20034;-84
2024/02/20 03:39:13;;;;;;;18.35;3.92;;;7.90;99.90;;;;;;5061493;28;20028;-85
2024/02/20 03:41:39;;;;;;;15.60;4.18;;;7.90;99.90;;;;;;5061707;28;20028;-85
2024/02/20 03:44:04;;;;;;;14.70;4.07;;;7.90;99.90;;;;;;5061028;28;20085;-85
2024/02/20 03:46:30;;;;;;;18.25;4.28;;;7.90;99.90;;;;;;5077666;28;20039;-85
2024/02/20 03:48:55;;;;;;;15.07;4.47;;;7.90;99.90;;;;;;5061085;28;20028;-85
2024/02/20 03:51:21;;;;;;;17.05;4.45;;;7.90;99.90;;;;;;5061126;28;20025;-85
2024/02/20 03:53:47;;;;;;;15.20;4.38;;;7.90;99.90;;;;;;5079086;28;20040;-85
2024/02/20 03:56:13;;;;;;;18.25;4.53;;;7.90;99.90;;;;;;5063646;28;20531;-85
2024/02/20 03:58:39;;;;;;;18.77;4.35;;;7.90;99.90;;;;;;5085083;28;20028;-85
2024/02/20 04:01:06;;;;;;;14.73;4.30;;;7.90;99.90;;;;;;5101782;28;20039;-83
2024/02/20 04:03:32;;;;;;;17.33;4.18;;;7.90;99.90;;;;;;5084956;28;20050;-85
2024/02/20 04:05:58;;;;;;;17.08;4.43;;;7.90;99.90;;;;;;5110002;28;20038;-85
2024/02/20 04:08:24;;;;;;;15.07;3.80;;;8.00;99.90;;;;;;5061855;28;20028;-86
2024/02/20 04:10:50;;;;;;;16.98;3.90;;;7.90;99.90;;;;;;5077621;28;20448;-85
2024/02/20 04:13:15;;;;;;;15.23;3.72;;;7.90;99.90;;;;;;5061286;28;20127;-85
2024/02/20 04:15:41;;;;;;;15.63;4.25;;;7.90;99.90;;;;;;5077603;28;20024;-86
2024/02/20 04:18:07;;;;;;;15.63;3.85;;;7.90;99.90;;;;;;5077696;28;20028;-84
2024/02/20 04:20:32;;;;;;;14.57;4.00;;;7.90;99.90;;;;;;5076603;28;20042;-85
2024/02/20 04:23:03;;;;;;;14.43;4.05;;;7.90;99.90;;;;;;5059954;28;20056;-85
2024/02/20 04:25:29;;;;;;;17.83;4.10;;;7.90;99.90;;;;;;5060002;28;20047;-85
2024/02/20 04:27:55;;;;;;;11.52;3.70;;;7.90;99.90;;;;;;5077458;28;20406;-84
2024/02/20 04:30:20;;;;;;;17.90;4.13;;;7.90;99.90;;;;;;5076812;28;20028;-85
2024/02/20 04:32:47;;;;;;;12.27;4.28;;;7.90;99.90;;;;;;5059699;28;20047;-86
2024/02/20 04:35:12;;;;;;;13.88;3.88;;;7.90;99.90;;;;;;5059128;28;20578;-86
2024/02/20 04:37:38;;;;;;;13.35;3.60;;;7.90;99.90;;;;;;5060001;28;20099;-85
2024/02/20 04:40:08;;;;;;;13.13;3.70;;;7.80;99.90;;;;;;5094951;28;20189;-86
2024/02/20 04:42:34;;;;;;;14.60;3.90;;;7.80;99.90;;;;;;5060555;28;20043;-85
2024/02/20 04:45:00;;;;;;;17.63;4.32;;;7.80;99.90;;;;;;5094492;28;20028;-85
2024/02/20 04:47:28;;;;;;;12.40;3.80;;;7.80;99.90;;;;;;5076762;28;20478;-85
2024/02/20 04:49:53;;;;;;;14.27;3.75;;;7.80;99.90;;;;;;5080361;28;20032;-84
2024/02/20 04:52:19;;;;;;;15.63;4.10;;;7.70;99.90;;;;;;5096373;28;20058;-87
2024/02/20 04:54:45;;;;;;;15.60;4.38;;;7.70;99.90;;;;;;5095594;28;20028;-85
2024/02/20 04:57:11;;;;;;;11.77;3.15;;;7.70;99.90;;;;;;5077166;28;20027;-84
2024/02/20 04:59:36;;;;;;;15.00;3.80;;;7.70;99.90;;;;;;5076613;28;20094;-84
2024/02/20 05:02:02;;;;;;;16.70;4.30;;;7.70;99.90;;;;;;5059761;28;20024;-86
2024/02/20 05:04:31;;;;;;;9.63;3.80;;;7.70;99.90;;;;;;5076846;28;20055;-84
2024/02/20 05:07:00;;;;;;;12.60;3.95;;;7.70;99.90;;;;;;5059916;28;20040;-85
2024/02/20 05:09:26;;;;;;;13.35;3.53;;;7.70;99.90;;;;;;5076399;28;20020;-86
2024/02/20 05:11:52;;;;;;;15.23;3.92;;;7.70;99.90;;;;;;5094242;28;20106;-85
2024/02/20 05:14:17;;;;;;;16.35;4.03;;;7.60;99.90;;;;;;5076828;28;20028;-85
2024/02/20 05:16:43;;;;;;;15.77;3.90;;;7.60;99.90;;;;;;5060037;28;20025;-85
2024/02/20 05:19:08;;;;;;;14.38;4.35;;;7.60;99.90;;;;;;5077026;28;20055;-85
2024/02/20 05:21:34;;;;;;;11.95;3.90;;;7.60;99.90;;;;;;5077040;28;20403;-86
2024/02/20 05:24:00;;;;;;;18.40;4.45;;;7.60;99.90;;;;;;5070857;28;20051;-85
2024/02/20 05:26:25;;;;;;;14.35;4.75;;;7.60;99.90;;;;;;5100758;28;20029;-85
2024/02/20 05:28:51;;;;;;;12.13;3.85;;;7.60;99.90;;;;;;5100805;28;20072;-84
2024/02/20 05:31:33;;;;;;;13.60;4.93;;;7.60;99.90;;;;;;5100550;28;20009;-86
2024/02/20 05:34:00;;;;;;;18.10;4.65;;;7.60;99.90;;;;;;5082012;28;20024;-84
2024/02/20 05:36:29;;;;;;;15.63;4.25;;;7.60;99.90;;;;;;5099308;28;20111;-86
2024/02/20 05:38:59;;;;;;;14.65;4.45;;;7.60;99.90;;;;;;5079730;28;20042;-90
2024/02/20 05:41:26;;;;;;;16.08;4.85;;;7.60;99.90;;;;;;5063117;28;20020;-91
2024/02/20 05:43:57;;;;;;;12.38;4.80;;;7.70;99.90;;;;;;5077971;28;20077;-89
2024/02/20 05:46:27;;;;;;;14.48;4.82;;;7.70;99.90;;;;;;5077446;28;20048;-88
2024/02/20 05:48:53;;;;;;;15.20;4.70;;;7.70;99.90;;;;;;5080553;28;20024;-88
2024/02/20 05:51:19;;;;;;;16.65;5.07;;;7.70;99.90;;;;;;5080886;28;20474;-89
2024/02/20 05:53:45;;;;;;;14.02;4.25;;;7.70;99.90;;;;;;5080691;28;20031;-88
2024/02/20 05:56:10;;;;;;;16.48;5.15;;;7.70;99.90;;;;;;5063933;28;20020;-89
2024/02/20 05:58:42;;;;;;;16.30;4.85;;;7.70;99.90;;;;;;5064009;28;20028;-87
2024/02/20 06:01:08;;;;;;;15.40;5.07;;;7.80;99.90;;;;;;5098888;28;20046;-89
2024/02/20 06:03:38;;;;;;;18.42;5.38;;;7.80;99.90;;;;;;5079956;28;20057;-88
2024/02/20 06:06:11;;;;;;;18.42;5.93;;;7.80;99.90;;;;;;5080694;28;20024;-89
2024/02/20 06:08:41;;;;;;;19.73;5.88;;;7.90;99.90;;;;;;5063694;28;20070;-88
2024/02/20 06:11:15;;;;;;;14.25;6.00;;;7.90;99.90;;;;;;5080993;28;20024;-85
2024/02/20 06:13:41;;;;;;;22.25;5.82;;;7.90;99.90;;;;;;5080470;28;20028;-87
2024/02/20 06:16:10;;;;;;;16.35;6.00;;;7.90;99.90;;;;;;5079430;28;20020;-85
2024/02/20 06:18:38;;;;;;;16.33;5.57;;;7.90;99.90;;;;;;5079424;28;20103;-87
2024/02/20 06:21:04;;;;;;;17.05;5.25;;;7.90;99.90;;;;;;5097492;28;20458;-87
2024/02/20 06:23:30;;;;;;;15.43;6.40;;;8.00;99.90;;;;;;5079278;28;20063;-87
2024/02/20 06:25:55;;;;;;;16.08;5.82;;;8.00;99.90;;;;;;5097946;28;20020;-87
2024/02/20 06:28:21;;;;;;;17.17;5.40;;;8.00;99.90;;;;;;5097326;28;20020;-86
2024/02/20 06:30:47;;;;;;;18.20;6.10;;;8.00;99.90;;;;;;5097675;28;20047;-87
2024/02/20 06:33:14;;;;;;;16.55;5.35;;;8.00;99.90;;;;;;5078798;28;20031;-87
2024/02/20 06:35:39;;;;;;;15.38;5.25;;;8.00;99.90;;;;;;5079407;28;20387;-88
2024/02/20 06:38:05;;;;;;;16.63;5.68;;;8.00;99.90;;;;;;5062384;28;20028;-87
2024/02/20 06:40:31;;;;;;;17.73;6.28;;;8.00;99.90;;;;;;5079207;28;20019;-88
2024/02/20 06:42:57;;;;;;;15.52;5.03;;;8.00;99.90;;;;;;5079217;28;20020;-87
2024/02/20 06:45:27;;;;;;;17.60;5.55;;;8.00;99.90;;;;;;5079713;28;20028;-87
2024/02/20 06:47:53;;;;;;;14.40;5.32;;;8.10;99.90;;;;;;5083522;28;20158;-87
2024/02/20 06:50:28;;;;;;;14.43;4.75;;;8.10;99.90;;;;;;5094253;28;20016;-85
2024/02/20 06:52:53;;;;;;;15.05;4.80;;;8.00;99.90;;;;;;5087524;28;20012;-87
2024/02/20 06:55:20;;;;;;;12.80;5.63;;;8.10;99.90;;;;;;5102713;28;20120;-87
2024/02/20 06:57:45;;;;;;;20.30;6.78;;;8.10;99.90;;;;;;5102759;28;20008;-85
2024/02/20 07:00:14;;;;;;;22.02;5.95;;;8.00;99.90;;;;;;5070514;28;20039;-87
2024/02/20 07:02:44;;;;;;;13.95;4.78;;;8.10;99.90;;;;;;5062775;28;20036;-86
2024/02/20 07:05:11;;;;;;;19.15;5.90;;;8.10;99.90;;;;;;5078815;28;20417;-88
2024/02/20 07:07:37;;;;;;;16.70;5.32;;;8.00;99.90;;;;;;5062440;28;20028;-88
2024/02/20 07:10:04;;;;;;;14.95;5.30;;;8.10;99.90;;;;;;5078238;28;20020;-87
2024/02/20 07:12:30;;;;;;;14.20;5.28;;;8.00;99.90;;;;;;5078534;28;20032;-87
2024/02/20 07:14:55;;;;;;;14.70;4.95;;;8.10;99.90;;;;;;5096497;28;20433;-87
2024/02/20 07:17:22;;;;;;;13.48;5.40;;;8.00;99.90;;;;;;5078279;28;20463;-87
2024/02/20 07:19:51;;;;;;;14.88;5.10;;;8.10;99.90;;;;;;5078358;28;20062;-87
2024/02/20 07:22:17;;;;;;;14.43;5.00;;;8.10;99.90;;;;;;5062017;28;20131;-88
2024/02/20 07:24:42;;;;;;;13.88;5.32;;;8.10;99.90;;;;;;5096037;28;20076;-86
2024/02/20 07:27:08;;;;;;;19.23;6.22;;;8.10;99.90;;;;;;5061960;28;20032;-87
2024/02/20 07:29:34;;;;;;;13.45;4.93;;;8.10;99.90;;;;;;5078010;28;20032;-88
2024/02/20 07:32:01;;;;;;;14.82;4.80;;;8.10;99.90;;;;;;5078193;28;20032;-88
2024/02/20 07:34:27;;;;;;;16.63;5.18;;;8.10;99.90;;;;;;5061953;28;20024;-85
2024/02/20 07:36:54;;;;;;;13.73;4.93;;;8.20;99.90;;;;;;5077047;28;20042;-86
2024/02/20 07:39:22;;;;;;;16.00;5.28;;;8.20;99.90;;;;;;5061089;28;20119;-86
2024/02/20 07:41:47;;;;;;;17.15;5.75;;;8.20;99.90;;;;;;5078214;28;20024;-88
2024/02/20 07:44:13;;;;;;;17.13;4.97;;;8.20;99.90;;;;;;5078053;28;20129;-89
2024/02/20 07:46:39;;;;;;;16.30;5.57;;;8.20;99.90;;;;;;5077965;28;20012;-88
2024/02/20 07:49:06;;;;;;;14.93;4.95;;;8.30;99.90;;;;;;5077547;28;20051;-89
2024/02/20 07:51:34;;;;;;;17.70;5.32;;;8.30;99.90;;;;;;5077746;28;20089;-87
2024/02/20 07:54:00;;;;;;;17.50;5.18;;;8.30;99.90;;;;;;5095833;28;20049;-87
2024/02/20 07:56:30;;;;;;;17.70;5.45;;;8.30;99.90;;;;;;5060832;28;20407;-88
2024/02/20 07:58:56;;;;;;;14.80;5.32;;;8.40;99.90;;;;;;5061754;28;20052;-88
2024/02/20 08:01:23;;;;;;;20.48;5.70;;;8.50;99.90;;;;;;5095192;28;20024;-88
2024/02/20 08:03:49;;;;;;;18.92;5.88;;;8.40;99.90;;;;;;5077631;28;20085;-88
2024/02/20 08:06:16;;;;;;;17.67;6.60;;;8.50;99.90;;;;;;5077881;28;20503;-86
2024/02/20 08:08:42;;;;;;;20.23;6.00;;;8.50;99.90;;;;;;5077279;28;20020;-87
2024/02/20 08:11:08;;;;;;;22.67;6.13;;;8.50;99.90;;;;;;5076151;28;20447;-87
2024/02/20 08:13:33;;;;;;;15.88;5.90;;;8.60;99.90;;;;;;5077630;28;20027;-89
2024/02/20 08:15:59;;;;;;;17.83;5.55;;;8.60;99.90;;;;;;5079607;28;20103;-87
2024/02/20 08:18:25;;;;;;;20.15;6.32;;;8.60;99.90;;;;;;5096446;28;20055;-88
2024/02/20 08:20:51;;;;;;;18.42;5.57;;;8.60;99.90;;;;;;5100257;28;20024;-86
2024/02/20 08:23:16;;;;;;;15.32;5.28;;;8.70;99.90;;;;;;5092044;28;20078;-88
2024/02/20 08:25:42;;;;;;;21.60;6.03;;;8.70;99.90;;;;;;5096314;28;20032;-88
2024/02/20 08:28:08;;;;;;;18.00;5.20;;;8.80;99.90;;;;;;5085237;28;20020;-88
2024/02/20 08:30:33;;;;;;;18.33;5.35;;;8.80;99.90;;;;;;5079680;28;20021;-87
2024/02/20 08:32:59;;;;;;;19.42;6.38;;;8.90;99.90;;;;;;5078927;28;20493;-88
2024/02/20 08:35:30;;;;;;;18.10;5.88;;;8.90;99.90;;;;;;5058903;28;20029;-88
2024/02/20 08:37:56;;;;;;;16.63;5.85;;;8.90;99.90;;;;;;5056906;28;20035;-88
2024/02/20 08:40:23;;;;;;;17.77;5.70;;;8.90;99.90;;;;;;5056486;28;20032;-87
2024/02/20 08:42:49;;;;;;;21.02;6.50;;;8.90;99.90;;;;;;5073179;28;20032;-86
2024/02/20 08:45:15;;;;;;;19.98;5.95;;;9.00;99.90;;;;;;5073755;28;20032;-86
2024/02/20 08:47:40;;;;;;;18.92;5.88;;;9.00;99.90;;;;;;5056256;28;20086;-86
2024/02/20 08:50:07;;;;;;;18.63;5.07;;;9.00;99.90;;;;;;5073546;28;20102;-86
2024/02/20 08:52:34;;;;;;;15.30;5.68;;;9.00;99.90;;;;;;5056352;28;20032;-86
2024/02/20 08:54:59;;;;;;;15.00;5.55;;;9.00;99.90;;;;;;5056237;28;20089;-87
2024/02/20 08:57:25;;;;;;;14.93;5.50;;;9.10;99.90;;;;;;5072962;28;20037;-87
2024/02/20 08:59:51;;;;;;;17.58;4.97;;;9.10;99.90;;;;;;5072933;28;20028;-87
2024/02/20 09:02:16;;;;;;;17.05;5.97;;;9.20;99.90;;;;;;5056016;28;20427;-87
2024/02/20 09:04:43;;;;;;;22.08;6.43;;;9.20;99.90;;;;;;5056052;28;20032;-87
2024/02/20 09:07:09;;;;;;;13.98;5.30;;;9.20;99.90;;;;;;5074076;28;20053;-87
2024/02/20 09:09:42;;;;;;;16.10;5.25;;;9.20;99.90;;;;;;5056541;28;20035;-86
2024/02/20 09:12:08;;;;;;;17.20;6.30;;;9.30;99.90;;;;;;5072509;28;20029;-87
2024/02/20 09:14:34;;;;;;;15.75;5.20;;;9.30;99.90;;;;;;5072948;28;20458;-87
2024/02/20 09:17:00;;;;;;;21.05;5.75;;;9.40;99.90;;;;;;5073001;28;20113;-87
2024/02/20 09:19:26;;;;;;;15.23;5.32;;;9.40;99.90;;;;;;5072711;28;20079;-86
2024/02/20 09:21:51;;;;;;;19.75;5.15;;;9.40;99.90;;;;;;5058519;28;20032;-86
2024/02/20 09:24:19;;;;;;;16.45;5.63;;;9.50;99.90;;;;;;5076949;28;20056;-87
2024/02/20 09:26:44;;;;;;;17.65;5.35;;;9.50;99.90;;;;;;5080883;28;20045;-87
2024/02/20 09:29:10;;;;;;;15.82;6.63;;;9.60;99.90;;;;;;5062624;28;20211;-86
2024/02/20 09:31:36;;;;;;;18.70;5.47;;;9.60;99.90;;;;;;5077351;28;20024;-87
2024/02/20 09:34:02;;;;;;;18.50;5.75;;;9.60;99.90;;;;;;5077257;28;20029;-87
2024/02/20 09:36:30;;;;;;;18.60;5.88;;;9.70;99.90;;;;;;5078321;28;20104;-87
2024/02/20 09:38:59;;;;;;;21.73;6.35;;;9.70;99.90;;;;;;5060498;28;20074;-88
2024/02/20 09:41:26;;;;;;;23.05;6.47;;;9.70;99.90;;;;;;5078869;28;20032;-86
2024/02/20 09:43:53;;;;;;;24.15;5.80;;;9.70;99.90;;;;;;5078821;28;20028;-87
2024/02/20 09:46:20;;;;;;;20.67;5.70;;;9.70;99.90;;;;;;5086969;28;20031;-86
2024/02/20 09:48:48;;;;;;;18.10;5.82;;;9.80;99.90;;;;;;5101568;28;20009;-85
2024/02/20 09:51:16;;;;;;;20.30;6.05;;;9.80;99.90;;;;;;5100748;28;20025;-86
2024/02/20 09:53:42;;;;;;;22.10;5.68;;;9.80;99.90;;;;;;5101592;28;20013;-86
2024/02/20 09:56:09;;;;;;;17.38;5.55;;;9.90;99.90;;;;;;5076871;28;20031;-87
2024/02/20 09:58:34;;;;;;;17.60;5.93;;;9.90;99.90;;;;;;5076943;28;20036;-86
2024/02/20 10:01:04;;;;;;;19.45;6.20;;;10.00;99.90;;;;;;5060057;28;20454;-86
2024/02/20 10:04:20;;;;;;;;;;;;;;;;;;;;;
2024/02/20 10:06:46;;;;;;;23.10;6.15;;;10.00;99.90;;;;;;5077648;28;20028;-87
2024/02/20 10:09:14;;;;;;;19.15;5.97;;;10.10;99.90;;;;;;5076398;28;20100;-87
2024/02/20 10:11:40;;;;;;;18.77;5.80;;;10.20;99.90;;;;;;5076512;28;20024;-87
2024/02/20 10:14:07;;;;;;;20.02;6.03;;;10.10;99.90;;;;;;5059783;28;20032;-86
2024/02/20 10:16:32;;;;;;;16.08;5.22;;;10.20;99.90;;;;;;5077103;28;20024;-87
2024/02/20 10:19:00;;;;;;;15.80;6.28;;;10.20;99.90;;;;;;5077570;28;20020;-86
2024/02/20 10:21:26;;;;;;;23.88;7.10;;;10.30;99.90;;;;;;5076661;28;20025;-86
2024/02/20 10:24:08;;;;;;;19.98;6.47;;;10.30;99.90;;;;;;5089754;28;20051;-86
2024/02/20 10:26:35;;;;;;;;;;;10.30;99.90;;;;;;5098125;28;20028;-87
2024/02/20 10:29:03;;;;;;;20.08;6.68;;;10.30;99.90;;;;;;5097098;28;20348;-86
2024/02/20 10:31:31;;;;;;;21.80;7.05;;;10.30;99.90;;;;;;5097178;28;20510;-87
2024/02/20 10:33:57;;;;;;;20.50;6.75;;;10.30;99.90;;;;;;5078166;28;20031;-86
2024/02/20 10:36:24;;;;;;;18.33;6.38;;;10.30;99.90;;;;;;5078363;28;20036;-86
2024/02/20 10:38:51;;;;;;;20.77;6.82;;;10.40;99.90;;;;;;5079227;28;20411;-87
2024/02/20 10:41:22;;;;;;;18.63;6.35;;;10.40;99.90;;;;;;5096837;28;20475;-87
2024/02/20 10:43:48;;;;;;;24.88;6.95;;;10.40;99.90;;;;;;5079719;28;20028;-85
2024/02/20 10:46:17;;;;;;;24.27;7.13;;;10.40;99.90;;;;;;5078603;28;20386;-86
2024/02/20 10:48:48;;;;;;;18.85;6.63;;;10.40;99.90;;;;;;5062299;28;20543;-86
2024/02/20 10:51:14;;;;;;;19.73;5.88;;;10.40;99.90;;;;;;5078935;28;20058;-85
2024/02/20 10:53:45;;;;;;;24.10;7.55;;;10.40;99.90;;;;;;5096857;28;20028;-86
2024/02/20 10:56:10;;;;;;;22.03;6.73;;;10.40;99.90;;;;;;5096526;28;20031;-86
2024/02/20 10:58:39;;;;;;;22.05;7.93;;;10.40;99.90;;;;;;5096727;28;20259;-86
2024/02/20 11:01:13;;;;;;;18.00;7.35;;;10.50;99.90;;;;;;5078443;28;20369;-86
2024/02/20 11:03:40;;;;;;;23.05;6.93;;;10.50;99.90;;;;;;5078401;28;20059;-86
2024/02/20 11:06:07;;;;;;;21.60;6.93;;;10.60;99.90;;;;;;5061856;28;20025;-86
2024/02/20 11:08:33;;;;;;;21.98;7.40;;;10.60;99.90;;;;;;5061934;28;20127;-86
2024/02/20 11:11:15;;;;;;;16.73;7.05;;;10.60;99.90;;;;;;5078832;28;20040;-86
2024/02/20 11:13:42;;;;;;;21.42;7.90;;;10.60;99.90;;;;;;5079524;28;20409;-86
2024/02/20 11:16:12;;;;;;;22.05;7.35;;;10.70;99.90;;;;;;5064912;28;20024;-84
2024/02/20 11:18:38;;;;;;;19.70;6.93;;;10.70;99.90;;;;;;5111880;28;20012;-86
2024/02/20 11:21:06;;;;;;;21.50;7.57;;;10.70;99.90;;;;;;5085616;28;20012;-85
2024/02/20 11:23:32;;;;;;;18.15;7.35;;;10.70;99.90;;;;;;5098719;28;20036;-85
2024/02/20 11:26:08;;;;;;;23.45;8.27;;;10.80;99.90;;;;;;5099208;28;20036;-86
2024/02/20 11:28:35;;;;;;;19.42;7.45;;;10.80;99.90;;;;;;5084188;28;20032;-86
2024/02/20 11:31:03;;;;;;;21.45;7.68;;;10.80;99.90;;;;;;5060403;28;20033;-87
2024/02/20 11:33:32;;;;;;;22.77;8.00;;;10.90;99.90;;;;;;5074643;28;20032;-87
2024/02/20 11:36:01;;;;;;;23.52;8.13;;;10.80;99.90;;;;;;5075706;28;20141;-86
2024/02/20 11:38:30;;;;;;;20.33;7.32;;;10.80;99.90;;;;;;5057312;28;20068;-86
2024/02/20 11:40:56;;;;;;;20.35;7.78;;;10.80;99.90;;;;;;5074002;28;20040;-85
2024/02/20 11:43:25;;;;;;;22.55;6.85;;;10.80;99.90;;;;;;5075479;28;20029;-86
2024/02/20 11:46:02;;;;;;;23.35;7.85;;;10.80;99.90;;;;;;5058050;28;20029;-86
2024/02/20 11:48:31;;;;;;;24.45;7.13;;;10.80;99.90;;;;;;5074217;28;20108;-86
2024/02/20 11:51:02;;;;;;;17.42;6.85;;;10.80;99.90;;;;;;5057353;28;20029;-86
2024/02/20 11:53:30;;;;;;;22.80;6.88;;;10.90;99.90;;;;;;5073801;28;20387;-86
2024/02/20 11:55:57;;;;;;;19.73;7.55;;;10.90;99.90;;;;;;5074083;28;20044;-86
2024/02/20 11:58:24;;;;;;;20.75;7.03;;;10.90;99.90;;;;;;5073520;28;20062;-86
2024/02/20 12:00:54;;;;;;;19.73;7.15;;;10.90;99.90;;;;;;5075341;28;20032;-87
2024/02/20 12:03:30;;;;;;;21.13;6.97;;;11.00;99.90;;;;;;5073639;28;20483;-85
2024/02/20 12:06:09;;;;;;;25.17;7.45;;;11.00;99.90;;;;;;5074137;28;20777;-86
2024/02/20 12:08:44;;;;;;;22.35;7.75;;;11.10;99.90;;;;;;5073589;28;20024;-86
2024/02/20 12:11:19;;;;;;;21.40;6.68;;;11.10;99.90;;;;;;5073898;28;20028;-86
2024/02/20 12:13:46;;;;;;;23.33;7.03;;;11.10;99.90;;;;;;5073966;28;20492;-86
2024/02/20 12:16:22;;;;;;;21.60;6.57;;;11.10;99.90;;;;;;5057279;28;20431;-85
2024/02/20 12:18:49;;;;;;;18.40;6.40;;;11.20;99.90;;;;;;5073288;28;20021;-85
2024/02/20 12:21:15;;;;;;;15.18;6.28;;;11.20;99.90;;;;;;5074580;28;20166;-85
2024/02/20 12:23:50;;;;;;;27.20;7.22;;;11.30;99.90;;;;;;5073424;28;20113;-86
2024/02/20 12:26:19;;;;;;;19.42;6.30;;;11.30;99.90;;;;;;5073411;28;20024;-85
2024/02/20 12:28:46;;;;;;;18.20;6.75;;;11.30;99.90;;;;;;5074699;28;20078;-86
2024/02/20 12:31:20;;;;;;;20.27;7.05;;;11.30;99.90;;;;;;5074733;28;20062;-87
2024/02/20 12:33:45;;;;;;;14.80;5.65;;;11.40;99.90;;;;;;5074878;28;20028;-86
2024/02/20 12:36:11;;;;;;;18.63;6.88;;;11.40;99.90;;;;;;5073743;28;20158;-86
2024/02/20 12:38:39;;;;;;;19.08;6.30;;;11.40;99.90;;;;;;5056898;28;20032;-85
2024/02/20 12:41:05;;;;;;;19.65;6.18;;;11.40;99.90;;;;;;5056465;28;20115;-87
2024/02/20 12:43:31;;;;;;;19.40;6.35;;;11.40;99.90;;;;;;5073732;28;20024;-85
2024/02/20 12:45:57;;;;;;;19.42;6.20;;;11.50;99.90;;;;;;5057124;28;20028;-86